Time;durP1;ratioP1;P1;durP2;ratioP2;P2;SDS_P1;SDS_P2;PMS_P1;PMS_P2;Temp;Humidity;BMP_temperature;BMP_pressure;BME280_temperature;BME280_humidity;BME280_pressure;Samples;Min_cycle;Max_cycle;Signal;HPM_P1;HPM_P2
2022/11/11 00:01:38;;;;;;;11.80;8.90;;;;;;;;;;5040058;28;20173;-55
2022/11/11 00:04:03;;;;;;;9.90;8.87;;;;;;;;;;5049535;28;20206;-55
2022/11/11 00:06:28;;;;;;;10.13;9.17;;;;;;;;;;5039958;28;20191;-57
2022/11/11 00:08:53;;;;;;;11.67;8.87;;;;;;;;;;5039897;28;20261;-56
2022/11/11 00:11:19;;;;;;;9.98;8.82;;;;;;;;;;5037015;28;20204;-56
2022/11/11 00:13:44;;;;;;;9.93;8.77;;;;;;;;;;5044220;28;20239;-56
2022/11/11 00:16:11;;;;;;;12.67;9.50;;;;;;;;;;5043685;28;20203;-56
2022/11/11 00:26:48;;;;;;;11.30;8.17;;;;;;;;;;5043952;28;21226;-57
2022/11/11 00:29:13;;;;;;;8.27;7.00;;;;;;;;;;5039549;28;20619;-56
2022/11/11 00:32:21;;;;;;;8.57;7.63;;;;;;;;;;5051329;28;20182;-56
2022/11/11 00:34:24;;;;;;;9.53;8.60;;;;;;;;;;5044996;28;20231;-57
2022/11/11 00:36:49;;;;;;;9.33;8.40;;;;;;;;;;5038243;28;20684;-56
2022/11/11 00:39:14;;;;;;;10.25;8.75;;;;;;;;;;5038556;28;20195;-56
2022/11/11 00:41:39;;;;;;;9.70;8.70;;;;;;;;;;5038203;28;20171;-56
2022/11/11 00:44:04;;;;;;;9.97;8.17;;;;;;;;;;5035767;28;20186;-55
2022/11/11 00:51:57;;;;;;;9.57;8.60;;;;;;;;;;5044651;28;20635;-56
2022/11/11 00:54:22;;;;;;;10.00;9.10;;;;;;;;;;5040496;28;20654;-56
2022/11/11 00:56:47;;;;;;;8.70;7.80;;;;;;;;;;5032662;28;20194;-56
2022/11/11 00:59:13;;;;;;;9.20;8.40;;;;;;;;;;5033041;28;20178;-56
2022/11/11 01:01:38;;;;;;;8.80;7.90;;;;;;;;;;5032930;28;20175;-56
2022/11/11 01:04:04;;;;;;;12.60;9.37;;;;;;;;;;5032721;28;20166;-56
2022/11/11 01:06:29;;;;;;;9.47;8.53;;;;;;;;;;5036198;28;20195;-56
2022/11/11 01:08:54;;;;;;;10.00;8.93;;;;;;;;;;5040763;28;20271;-56
2022/11/11 01:11:20;;;;;;;11.57;8.50;;;;;;;;;;5038058;28;20186;-56
2022/11/11 01:13:45;;;;;;;10.30;9.23;;;;;;;;;;5045776;28;20200;-55
2022/11/11 01:16:18;;;;;;;10.47;8.70;;;;;;;;;;5034883;28;20694;-55
2022/11/11 01:18:44;;;;;;;10.20;9.27;;;;;;;;;;5045835;28;20179;-55
2022/11/11 01:21:10;;;;;;;10.02;9.13;;;;;;;;;;5033623;28;20620;-56
2022/11/11 01:23:37;;;;;;;9.50;8.60;;;;;;;;;;5041938;28;20212;-56
2022/11/11 01:26:22;;;;;;;10.90;9.80;;;;;;;;;;5044624;28;20624;-56
2022/11/11 01:28:48;;;;;;;9.83;8.90;;;;;;;;;;5031406;28;20629;-56
2022/11/11 01:31:14;;;;;;;10.60;9.60;;;;;;;;;;5034680;28;20625;-56
2022/11/11 01:33:39;;;;;;;10.63;9.53;;;;;;;;;;5044931;28;20618;-56
2022/11/11 01:36:10;;;;;;;9.93;8.93;;;;;;;;;;5034871;28;21221;-56
2022/11/11 01:38:36;;;;;;;10.77;9.67;;;;;;;;;;5040542;28;20215;-56
2022/11/11 01:41:31;;;;;;;12.33;9.20;;;;;;;;;;5039796;28;20640;-56
2022/11/11 01:43:46;;;;;;;10.30;9.27;;;;;;;;;;5035910;28;20201;-55
2022/11/11 01:46:20;;;;;;;10.00;8.90;;;;;;;;;;5049924;28;21188;-55
2022/11/11 01:51:44;;;;;;;9.90;8.97;;;;;;;;;;5037801;28;20604;-56
2022/11/11 01:54:13;;;;;;;10.30;9.30;;;;;;;;;;5038071;28;20674;-56
2022/11/11 01:56:39;;;;;;;9.90;9.00;;;;;;;;;;5049629;28;20657;-56
2022/11/11 01:59:08;;;;;;;12.67;9.97;;;;;;;;;;5046773;28;20620;-56
2022/11/11 02:01:33;;;;;;;12.03;10.20;;;;;;;;;;5035284;28;20666;-57
2022/11/11 02:06:43;;;;;;;10.40;9.30;;;;;;;;;;5034189;28;20219;-56
2022/11/11 02:09:09;;;;;;;11.90;10.80;;;;;;;;;;5041531;28;21468;-56
2022/11/11 02:14:38;;;;;;;10.87;9.80;;;;;;;;;;5038886;28;20678;-56
2022/11/11 02:17:07;;;;;;;11.60;10.40;;;;;;;;;;5038293;28;20686;-57
2022/11/11 02:19:51;;;;;;;13.10;11.10;;;;;;;;;;5031691;28;20622;-57
2022/11/11 02:22:22;;;;;;;11.40;10.17;;;;;;;;;;5037993;28;20612;-57
2022/11/11 02:24:47;;;;;;;11.73;10.70;;;;;;;;;;5039737;28;20613;-56
2022/11/11 02:27:14;;;;;;;10.87;9.87;;;;;;;;;;5042148;28;20620;-55
2022/11/11 02:29:40;;;;;;;12.47;11.27;;;;;;;;;;5045831;28;20195;-55
2022/11/11 02:32:05;;;;;;;13.50;10.40;;;;;;;;;;5044517;28;20620;-55
2022/11/11 02:34:31;;;;;;;11.37;10.20;;;;;;;;;;5040968;28;20623;-56
2022/11/11 02:36:57;;;;;;;12.10;11.00;;;;;;;;;;5041098;28;20191;-56
2022/11/11 02:39:23;;;;;;;12.97;11.67;;;;;;;;;;5043182;28;20554;-56
2022/11/11 02:41:57;;;;;;;13.00;11.63;;;;;;;;;;5035645;28;20285;-57
2022/11/11 02:44:23;;;;;;;15.00;12.33;;;;;;;;;;5040141;28;20637;-55
2022/11/11 02:46:48;;;;;;;11.80;10.70;;;;;;;;;;5030881;28;20619;-56
2022/11/11 02:49:13;;;;;;;13.30;11.00;;;;;;;;;;5041130;28;21169;-55
2022/11/11 02:51:39;;;;;;;12.33;11.13;;;;;;;;;;5046652;28;20193;-56
2022/11/11 02:54:04;;;;;;;11.37;10.10;;;;;;;;;;5031791;28;20295;-56
2022/11/11 02:59:13;;;;;;;12.97;9.97;;;;;;;;;;5040555;28;20198;-56
2022/11/11 03:01:38;;;;;;;13.47;10.90;;;;;;;;;;5043189;28;20587;-55
2022/11/11 03:04:04;;;;;;;11.67;10.47;;;;;;;;;;5050565;28;20232;-54
2022/11/11 03:06:29;;;;;;;15.60;10.90;;;;;;;;;;5042134;28;20197;-55
2022/11/11 03:08:54;;;;;;;11.40;10.30;;;;;;;;;;5035384;28;20193;-56
2022/11/11 03:11:26;;;;;;;11.33;10.27;;;;;;;;;;5046771;28;20263;-56
2022/11/11 03:13:58;;;;;;;11.93;10.53;;;;;;;;;;5044466;28;20196;-55
2022/11/11 03:19:07;;;;;;;12.00;11.00;;;;;;;;;;5033104;28;20626;-55
2022/11/11 03:21:33;;;;;;;12.93;11.73;;;;;;;;;;5033330;28;21206;-56
2022/11/11 03:23:58;;;;;;;12.10;10.90;;;;;;;;;;5036232;28;20180;-56
2022/11/11 03:26:23;;;;;;;12.73;11.43;;;;;;;;;;5031372;28;20176;-56
2022/11/11 03:28:48;;;;;;;11.80;10.60;;;;;;;;;;5036465;28;20174;-56
2022/11/11 03:31:14;;;;;;;12.07;10.97;;;;;;;;;;5046497;28;20191;-56
2022/11/11 03:33:39;;;;;;;12.20;11.00;;;;;;;;;;5031896;28;20611;-56
2022/11/11 03:36:04;;;;;;;13.97;11.70;;;;;;;;;;5030654;28;20211;-56
2022/11/11 03:38:29;;;;;;;12.63;11.33;;;;;;;;;;5043554;28;20175;-56
2022/11/11 03:40:55;;;;;;;12.13;11.03;;;;;;;;;;5040121;28;20188;-57
2022/11/11 03:43:22;;;;;;;11.77;10.27;;;;;;;;;;5043667;28;20179;-59
2022/11/11 03:45:47;;;;;;;14.63;11.27;;;;;;;;;;5034045;28;20667;-57
2022/11/11 03:48:13;;;;;;;16.53;12.77;;;;;;;;;;5031270;28;20611;-56
2022/11/11 03:50:38;;;;;;;12.50;11.20;;;;;;;;;;5033271;28;20189;-56
2022/11/11 03:53:04;;;;;;;12.43;11.17;;;;;;;;;;5036435;28;21083;-57
2022/11/11 03:55:29;;;;;;;14.40;12.90;;;;;;;;;;5041199;28;20267;-56
2022/11/11 03:57:54;;;;;;;13.20;12.00;;;;;;;;;;5038877;28;20733;-56
2022/11/11 04:00:22;;;;;;;12.80;11.13;;;;;;;;;;5043467;28;20308;-56
2022/11/11 04:11:02;;;;;;;13.90;12.50;;;;;;;;;;5033856;28;21170;-56
2022/11/11 04:16:11;;;;;;;13.10;11.60;;;;;;;;;;5050120;28;20680;-57
2022/11/11 04:26:49;;;;;;;14.17;12.07;;;;;;;;;;5033076;28;21127;-55
2022/11/11 04:29:29;;;;;;;13.03;11.73;;;;;;;;;;5039026;28;20622;-56
2022/11/11 04:34:38;;;;;;;12.73;11.63;;;;;;;;;;5033693;28;20612;-56
2022/11/11 04:37:03;;;;;;;13.60;12.13;;;;;;;;;;5031361;28;21052;-56
2022/11/11 04:42:12;;;;;;;12.83;11.63;;;;;;;;;;5043144;28;20482;-57
2022/11/11 04:47:21;;;;;;;13.27;12.00;;;;;;;;;;5039358;28;20235;-56
2022/11/11 04:49:46;;;;;;;14.80;12.77;;;;;;;;;;5039508;28;21202;-54
2022/11/11 04:52:30;;;;;;;14.50;11.63;;;;;;;;;;5050682;28;20183;-56
2022/11/11 04:57:44;;;;;;;14.77;13.20;;;;;;;;;;5036253;28;20662;-55
2022/11/11 05:00:10;;;;;;;16.13;14.40;;;;;;;;;;5051942;28;21162;-55
2022/11/11 05:05:19;;;;;;;14.33;12.90;;;;;;;;;;5036540;28;20629;-55
2022/11/11 05:10:28;;;;;;;14.27;12.07;;;;;;;;;;5031884;28;20613;-58
2022/11/11 05:21:19;;;;;;;13.50;11.97;;;;;;;;;;5033797;28;20632;-56
2022/11/11 05:21:20;;;;;;;15.27;13.67;;;;;;;;;;5041901;28;20658;-57
2022/11/11 05:26:29;;;;;;;15.27;13.67;;;;;;;;;;5042718;28;20599;-56
2022/11/11 05:28:54;;;;;;;15.57;14.17;;;;;;;;;;5041132;28;20620;-57
2022/11/11 05:31:19;;;;;;;15.83;14.03;;;;;;;;;;5044758;28;20704;-56
2022/11/11 05:33:44;;;;;;;15.73;13.90;;;;;;;;;;5026046;28;20195;-54
2022/11/11 05:36:09;;;;;;;15.10;13.53;;;;;;;;;;5038218;28;20202;-54
2022/11/11 05:38:34;;;;;;;14.23;12.77;;;;;;;;;;5024563;28;20298;-54
2022/11/11 05:41:00;;;;;;;14.40;13.00;;;;;;;;;;5030306;28;20653;-54
2022/11/11 05:43:25;;;;;;;14.90;13.20;;;;;;;;;;5033527;28;20235;-54
2022/11/11 05:45:50;;;;;;;17.63;13.20;;;;;;;;;;5039232;28;20213;-55
2022/11/11 05:48:15;;;;;;;15.70;14.20;;;;;;;;;;5040288;28;20195;-54
2022/11/11 05:50:41;;;;;;;16.17;14.07;;;;;;;;;;5041609;28;20182;-54
2022/11/11 05:53:06;;;;;;;16.57;14.97;;;;;;;;;;5033615;28;20238;-55
2022/11/11 05:55:31;;;;;;;16.40;14.23;;;;;;;;;;5036209;28;20575;-54
2022/11/11 05:57:56;;;;;;;17.00;14.82;;;;;;;;;;5031620;28;20706;-55
2022/11/11 06:00:21;;;;;;;16.35;14.65;;;;;;;;;;5036631;28;20181;-55
2022/11/11 06:02:47;;;;;;;16.87;14.70;;;;;;;;;;5047464;28;20170;-55
2022/11/11 06:05:12;;;;;;;16.55;14.85;;;;;;;;;;5037120;28;20201;-55
2022/11/11 06:07:39;;;;;;;16.50;14.87;;;;;;;;;;5030469;28;20180;-55
2022/11/11 06:13:04;;;;;;;16.93;15.23;;;;;;;;;;5030706;28;20631;-54
2022/11/11 06:15:33;;;;;;;15.97;14.47;;;;;;;;;;5024419;28;21322;-56
2022/11/11 06:17:58;;;;;;;15.13;13.50;;;;;;;;;;5032197;28;20703;-56
2022/11/11 06:20:23;;;;;;;14.97;13.47;;;;;;;;;;5039260;28;21216;-56
2022/11/11 06:22:57;;;;;;;15.23;13.77;;;;;;;;;;5040820;28;20168;-56
2022/11/11 06:28:13;;;;;;;13.97;12.67;;;;;;;;;;5038934;28;20650;-56
2022/11/11 06:30:39;;;;;;;15.67;12.63;;;;;;;;;;5031125;28;20572;-56
2022/11/11 06:33:06;;;;;;;14.13;12.73;;;;;;;;;;5031622;28;20181;-59
2022/11/11 06:35:31;;;;;;;14.70;13.13;;;;;;;;;;5031146;28;20260;-57
2022/11/11 06:37:56;;;;;;;14.73;13.30;;;;;;;;;;5031302;28;20662;-56
2022/11/11 06:40:23;;;;;;;13.90;12.55;;;;;;;;;;5033025;28;20226;-55
2022/11/11 06:42:48;;;;;;;16.43;14.40;;;;;;;;;;5031114;28;20178;-54
2022/11/11 06:45:13;;;;;;;15.57;14.03;;;;;;;;;;5031210;28;20606;-55
2022/11/11 06:47:38;;;;;;;14.23;12.90;;;;;;;;;;5030845;28;20225;-55
2022/11/11 06:50:04;;;;;;;15.88;14.32;;;;;;;;;;5039506;28;20169;-55
2022/11/11 06:52:29;;;;;;;15.63;14.07;;;;;;;;;;5050586;28;20312;-55
2022/11/11 06:54:54;;;;;;;16.70;14.98;;;;;;;;;;5051046;28;20167;-55
2022/11/11 06:57:21;;;;;;;15.50;13.90;;;;;;;;;;5050888;28;20208;-56
2022/11/11 06:59:47;;;;;;;16.00;14.30;;;;;;;;;;5046042;28;20191;-55
2022/11/11 07:02:12;;;;;;;15.33;14.07;;;;;;;;;;5028854;28;21104;-55
2022/11/11 07:04:37;;;;;;;16.73;15.23;;;;;;;;;;5037113;28;20186;-55
2022/11/11 07:07:03;;;;;;;15.60;14.00;;;;;;;;;;5047399;28;20602;-55
2022/11/11 07:09:28;;;;;;;16.43;14.93;;;;;;;;;;5039294;28;20183;-55
2022/11/11 07:11:53;;;;;;;17.10;15.40;;;;;;;;;;5046926;28;20607;-55
2022/11/11 07:14:18;;;;;;;16.93;15.07;;;;;;;;;;5034211;28;20187;-55
2022/11/11 07:16:43;;;;;;;16.42;14.73;;;;;;;;;;5029514;28;20202;-55
2022/11/11 07:19:09;;;;;;;19.63;14.90;;;;;;;;;;5040389;28;20746;-56
2022/11/11 07:21:34;;;;;;;17.63;15.90;;;;;;;;;;5035747;28;20246;-55
2022/11/11 07:23:59;;;;;;;17.05;15.35;;;;;;;;;;5039048;28;20184;-55
2022/11/11 07:26:24;;;;;;;16.77;15.33;;;;;;;;;;5045680;28;20839;-56
2022/11/11 07:28:50;;;;;;;16.33;14.75;;;;;;;;;;5032081;28;20177;-56
2022/11/11 07:31:15;;;;;;;15.67;14.27;;;;;;;;;;5041041;28;20668;-56
2022/11/11 07:33:40;;;;;;;17.30;15.60;;;;;;;;;;5026412;28;20254;-56
2022/11/11 07:36:05;;;;;;;16.73;14.87;;;;;;;;;;5033043;28;20766;-56
2022/11/11 07:38:30;;;;;;;15.33;14.03;;;;;;;;;;5034595;28;20166;-56
2022/11/11 07:40:56;;;;;;;15.30;13.70;;;;;;;;;;5034691;28;20183;-56
2022/11/11 07:43:21;;;;;;;16.10;14.57;;;;;;;;;;5035173;28;20265;-57
2022/11/11 07:45:46;;;;;;;16.02;14.40;;;;;;;;;;5036494;28;20212;-56
2022/11/11 07:48:11;;;;;;;15.83;14.20;;;;;;;;;;5052565;28;20222;-56
2022/11/11 07:50:36;;;;;;;14.40;13.10;;;;;;;;;;5054301;28;20547;-56
2022/11/11 07:53:01;;;;;;;15.93;14.25;;;;;;;;;;5044625;28;20280;-56
2022/11/11 07:55:27;;;;;;;16.33;14.63;;;;;;;;;;5034285;28;20255;-56
2022/11/11 07:57:52;;;;;;;16.17;14.60;;;;;;;;;;5034556;28;20175;-56
2022/11/11 08:00:17;;;;;;;15.53;14.03;;;;;;;;;;5034243;28;20180;-56
2022/11/11 08:02:46;;;;;;;16.10;13.97;;;;;;;;;;5029934;28;20181;-56
2022/11/11 08:05:11;;;;;;;16.10;14.50;;;;;;;;;;5034107;28;20193;-56
2022/11/11 08:07:36;;;;;;;14.50;13.20;;;;;;;;;;5034069;28;20617;-55
2022/11/11 08:10:02;;;;;;;14.63;13.23;;;;;;;;;;5034183;28;20263;-57
2022/11/11 08:15:11;;;;;;;13.83;12.63;;;;;;;;;;5053925;28;20234;-56
2022/11/11 08:17:38;;;;;;;15.13;13.43;;;;;;;;;;5051652;28;20643;-55
2022/11/11 08:20:03;;;;;;;17.00;13.30;;;;;;;;;;5050821;28;20191;-56
2022/11/11 08:22:28;;;;;;;14.77;13.27;;;;;;;;;;5033529;28;20970;-55
2022/11/11 08:24:53;;;;;;;13.87;12.67;;;;;;;;;;5043570;28;20255;-55
2022/11/11 08:27:18;;;;;;;14.07;12.90;;;;;;;;;;5052490;28;20189;-56
2022/11/11 08:29:44;;;;;;;14.67;13.27;;;;;;;;;;5053527;28;20606;-55
2022/11/11 08:32:10;;;;;;;13.00;11.77;;;;;;;;;;5052949;28;20167;-56
2022/11/11 08:34:35;;;;;;;15.07;13.77;;;;;;;;;;5048893;28;20546;-56
2022/11/11 08:37:00;;;;;;;14.33;13.10;;;;;;;;;;5051205;28;20647;-56
2022/11/11 08:39:25;;;;;;;15.00;13.70;;;;;;;;;;5053597;28;20260;-56
2022/11/11 08:41:51;;;;;;;15.43;13.90;;;;;;;;;;5051380;28;20245;-55
2022/11/11 08:44:16;;;;;;;14.23;13.03;;;;;;;;;;5053243;28;20635;-55
2022/11/11 08:46:41;;;;;;;15.00;13.50;;;;;;;;;;5051121;28;20256;-55
2022/11/11 08:49:07;;;;;;;14.20;13.00;;;;;;;;;;5036676;28;20189;-55
2022/11/11 08:51:32;;;;;;;14.73;12.20;;;;;;;;;;5033296;28;20184;-56
2022/11/11 08:53:58;;;;;;;13.87;12.20;;;;;;;;;;5032825;28;20992;-56
2022/11/11 08:56:23;;;;;;;15.63;14.13;;;;;;;;;;5032831;28;20206;-56
2022/11/11 08:58:48;;;;;;;15.40;13.88;;;;;;;;;;5052547;28;20184;-55
2022/11/11 09:01:13;;;;;;;16.13;14.30;;;;;;;;;;5052658;28;20266;-58
2022/11/11 09:03:42;;;;;;;18.80;13.30;;;;;;;;;;5050548;28;20175;-55
2022/11/11 09:06:07;;;;;;;14.90;13.50;;;;;;;;;;5051185;28;20635;-56
2022/11/11 09:08:32;;;;;;;15.63;14.20;;;;;;;;;;5040688;28;20680;-56
2022/11/11 09:10:58;;;;;;;17.23;15.53;;;;;;;;;;5033222;28;20612;-55
2022/11/11 09:13:23;;;;;;;16.47;14.77;;;;;;;;;;5032514;28;20204;-56
2022/11/11 09:15:51;;;;;;;15.10;13.83;;;;;;;;;;5032880;28;20633;-57
2022/11/11 09:18:16;;;;;;;15.90;14.43;;;;;;;;;;5032466;28;20181;-56
2022/11/11 09:20:42;;;;;;;15.83;14.43;;;;;;;;;;5032504;28;20962;-56
2022/11/11 09:23:07;;;;;;;15.20;13.80;;;;;;;;;;5038020;28;20172;-56
2022/11/11 09:25:32;;;;;;;15.10;13.73;;;;;;;;;;5052577;28;20173;-56
2022/11/11 09:27:58;;;;;;;15.23;13.70;;;;;;;;;;5049689;28;20168;-55
2022/11/11 09:30:24;;;;;;;14.40;13.20;;;;;;;;;;5032471;28;20188;-56
2022/11/11 09:32:50;;;;;;;13.90;12.70;;;;;;;;;;5032316;28;20622;-56
2022/11/11 09:35:15;;;;;;;14.23;13.00;;;;;;;;;;5032344;28;20673;-57
2022/11/11 09:37:40;;;;;;;12.60;11.60;;;;;;;;;;5044858;28;20210;-57
2022/11/11 09:40:06;;;;;;;13.47;12.20;;;;;;;;;;5032391;28;20182;-54
2022/11/11 09:42:39;;;;;;;14.23;12.70;;;;;;;;;;5032517;28;20176;-55
2022/11/11 09:45:25;;;;;;;13.50;12.27;;;;;;;;;;5032368;28;20172;-56
2022/11/11 09:48:08;;;;;;;14.43;13.17;;;;;;;;;;5046418;28;20625;-56
2022/11/11 09:50:36;;;;;;;13.07;11.93;;;;;;;;;;5050218;28;21211;-56
2022/11/11 09:53:11;;;;;;;12.20;11.03;;;;;;;;;;5049208;28;20702;-56
2022/11/11 09:55:41;;;;;;;16.67;12.60;;;;;;;;;;5052135;28;20571;-55
2022/11/11 09:58:20;;;;;;;15.33;12.30;;;;;;;;;;5051202;28;21123;-56
2022/11/11 10:00:55;;;;;;;14.50;13.03;;;;;;;;;;5050012;28;20612;-56
2022/11/11 10:03:22;;;;;;;14.03;12.63;;;;;;;;;;5051621;28;20575;-55
2022/11/11 10:06:10;;;;;;;13.87;12.30;;;;;;;;;;5051494;28;20925;-55
2022/11/11 10:08:38;;;;;;;12.97;11.60;;;;;;;;;;5048571;28;20603;-56
2022/11/11 10:11:09;;;;;;;19.20;13.10;;;;;;;;;;5034780;28;20988;-56
2022/11/11 10:13:36;;;;;;;12.40;11.30;;;;;;;;;;5051417;28;20610;-56
2022/11/11 10:16:20;;;;;;;13.43;12.23;;;;;;;;;;5051548;28;20738;-55
2022/11/11 10:18:45;;;;;;;13.73;12.53;;;;;;;;;;5051557;28;20791;-55
2022/11/11 10:21:13;;;;;;;14.23;12.93;;;;;;;;;;5048121;28;20632;-57
2022/11/11 10:23:38;;;;;;;14.13;12.90;;;;;;;;;;5036403;28;20183;-56
2022/11/11 10:26:13;;;;;;;14.13;12.80;;;;;;;;;;5031576;28;20699;-57
2022/11/11 10:28:40;;;;;;;13.33;12.20;;;;;;;;;;5031352;28;20240;-59
2022/11/11 10:31:12;;;;;;;13.07;11.87;;;;;;;;;;5033583;28;20622;-56
2022/11/11 10:33:43;;;;;;;13.53;12.03;;;;;;;;;;5031175;28;20609;-54
2022/11/11 10:36:12;;;;;;;14.43;12.70;;;;;;;;;;5031098;28;21276;-57
2022/11/11 10:38:44;;;;;;;14.40;13.07;;;;;;;;;;5031275;28;20634;-56
2022/11/11 10:41:12;;;;;;;12.13;11.20;;;;;;;;;;5031855;28;20712;-56
2022/11/11 10:43:37;;;;;;;14.17;12.77;;;;;;;;;;5031047;28;20631;-54
2022/11/11 10:46:13;;;;;;;12.47;11.57;;;;;;;;;;5031116;28;20587;-56
2022/11/11 10:48:53;;;;;;;13.70;12.40;;;;;;;;;;5031062;28;20223;-55
2022/11/11 10:51:18;;;;;;;15.10;13.20;;;;;;;;;;5030811;28;20573;-55
2022/11/11 10:53:56;;;;;;;13.57;12.20;;;;;;;;;;5031344;28;20655;-55
2022/11/11 10:56:27;;;;;;;13.90;12.67;;;;;;;;;;5030927;28;20235;-54
2022/11/11 10:58:59;;;;;;;15.33;13.93;;;;;;;;;;5030809;28;21216;-56
2022/11/11 11:01:31;;;;;;;13.53;12.33;;;;;;;;;;5031189;28;20604;-56
2022/11/11 11:03:59;;;;;;;13.27;12.03;;;;;;;;;;5030669;28;20611;-55
2022/11/11 11:06:28;;;;;;;12.60;11.50;;;;;;;;;;5030292;28;21206;-55
2022/11/11 11:09:00;;;;;;;13.70;12.30;;;;;;;;;;5030854;28;20594;-56
2022/11/11 11:11:29;;;;;;;14.00;12.70;;;;;;;;;;5030139;28;20581;-56
2022/11/11 11:13:58;;;;;;;13.33;12.10;;;;;;;;;;5026337;28;20632;-56
2022/11/11 11:16:46;;;;;;;13.33;12.30;;;;;;;;;;5032777;28;20662;-56
2022/11/11 11:19:25;;;;;;;14.40;13.03;;;;;;;;;;5030665;28;20573;-56
2022/11/11 11:21:54;;;;;;;13.80;12.47;;;;;;;;;;5047721;28;20593;-56
2022/11/11 11:24:24;;;;;;;14.00;11.83;;;;;;;;;;5050649;28;20574;-56
2022/11/11 11:26:51;;;;;;;13.53;12.23;;;;;;;;;;5045718;28;20694;-55
2022/11/11 11:29:34;;;;;;;14.00;12.70;;;;;;;;;;5030648;28;20671;-60
2022/11/11 11:32:10;;;;;;;13.27;12.23;;;;;;;;;;5030228;28;20583;-56
2022/11/11 11:35:05;;;;;;;13.70;12.40;;;;;;;;;;5028575;28;20590;-63
2022/11/11 11:37:30;;;;;;;13.80;12.60;;;;;;;;;;5025841;28;20681;-59
2022/11/11 11:40:00;;;;;;;13.73;12.47;;;;;;;;;;5030406;28;20677;-56
2022/11/11 11:42:33;;;;;;;13.10;11.83;;;;;;;;;;5030605;28;20526;-56
2022/11/11 11:45:17;;;;;;;12.43;11.30;;;;;;;;;;5030164;28;20590;-56
2022/11/11 11:47:50;;;;;;;12.73;11.63;;;;;;;;;;5030584;28;20586;-54
2022/11/11 11:50:24;;;;;;;12.50;11.43;;;;;;;;;;5030666;28;20954;-55
2022/11/11 11:53:06;;;;;;;12.50;11.50;;;;;;;;;;5029377;28;21113;-56
2022/11/11 11:55:34;;;;;;;12.67;11.40;;;;;;;;;;5030412;28;20957;-55
2022/11/11 11:57:59;;;;;;;13.10;12.00;;;;;;;;;;5029930;28;20583;-55
2022/11/11 12:00:27;;;;;;;12.67;11.47;;;;;;;;;;5030385;28;20689;-62
2022/11/11 12:03:10;;;;;;;13.10;12.00;;;;;;;;;;5026110;28;20178;-57
2022/11/11 12:05:44;;;;;;;12.47;11.33;;;;;;;;;;5030655;28;20583;-55
2022/11/11 12:08:15;;;;;;;14.87;12.30;;;;;;;;;;5030440;28;20669;-56
2022/11/11 12:10:58;;;;;;;13.93;12.73;;;;;;;;;;5043218;28;20604;-55
2022/11/11 12:13:53;;;;;;;13.30;12.20;;;;;;;;;;5046359;28;21252;-56
2022/11/11 12:16:37;;;;;;;12.10;11.10;;;;;;;;;;5030020;28;20771;-57
2022/11/11 12:19:11;;;;;;;12.80;11.70;;;;;;;;;;5049006;28;20583;-56
2022/11/11 12:21:45;;;;;;;12.80;11.70;;;;;;;;;;5032446;28;20985;-57
2022/11/11 12:24:21;;;;;;;12.83;11.83;;;;;;;;;;5033807;28;20577;-57
2022/11/11 12:26:58;;;;;;;12.90;11.70;;;;;;;;;;5033728;28;20636;-56
2022/11/11 12:29:33;;;;;;;12.37;11.40;;;;;;;;;;5033993;28;20572;-56
2022/11/11 12:32:09;;;;;;;13.20;11.80;;;;;;;;;;5033835;28;20692;-56
2022/11/11 12:34:56;;;;;;;11.90;10.70;;;;;;;;;;5033671;28;20591;-55
2022/11/11 12:37:21;;;;;;;12.30;11.30;;;;;;;;;;5033505;28;20992;-56
2022/11/11 12:40:01;;;;;;;12.60;11.40;;;;;;;;;;5033596;28;20584;-56
2022/11/11 12:42:35;;;;;;;12.10;11.00;;;;;;;;;;5034433;28;20190;-56
2022/11/11 12:45:10;;;;;;;12.43;11.33;;;;;;;;;;5029489;28;20624;-56
2022/11/11 12:47:39;;;;;;;12.73;10.53;;;;;;;;;;5033887;28;20571;-56
2022/11/11 12:50:17;;;;;;;12.30;11.10;;;;;;;;;;5033325;28;20623;-56
2022/11/11 12:52:48;;;;;;;12.80;11.60;;;;;;;;;;5032514;28;20654;-55
2022/11/11 12:55:32;;;;;;;12.03;10.87;;;;;;;;;;5033100;28;20585;-56
2022/11/11 12:58:03;;;;;;;13.23;12.13;;;;;;;;;;5033448;28;20606;-55
2022/11/11 13:00:28;;;;;;;11.77;10.77;;;;;;;;;;5033243;28;20577;-54
2022/11/11 13:03:09;;;;;;;11.93;10.83;;;;;;;;;;5034491;28;20620;-55
2022/11/11 13:05:38;;;;;;;12.13;11.07;;;;;;;;;;5033156;28;20179;-55
2022/11/11 13:08:22;;;;;;;11.70;10.60;;;;;;;;;;5032861;28;20597;-56
2022/11/11 13:10:53;;;;;;;13.27;12.07;;;;;;;;;;5039484;28;20624;-56
2022/11/11 13:13:29;;;;;;;11.50;10.40;;;;;;;;;;5032243;28;20622;-56
2022/11/11 13:15:55;;;;;;;12.23;11.00;;;;;;;;;;5032668;28;20744;-56
2022/11/11 13:18:26;;;;;;;13.90;11.40;;;;;;;;;;5041402;28;21485;-56
2022/11/11 13:21:03;;;;;;;13.43;12.03;;;;;;;;;;5046525;28;20754;-56
2022/11/11 13:23:28;;;;;;;12.03;11.03;;;;;;;;;;5032325;28;21129;-57
2022/11/11 13:25:56;;;;;;;11.57;10.63;;;;;;;;;;5032962;28;20699;-56
2022/11/11 13:28:30;;;;;;;13.30;12.00;;;;;;;;;;5032538;28;20195;-57
2022/11/11 13:31:01;;;;;;;12.83;11.33;;;;;;;;;;5035219;28;20632;-56
2022/11/11 13:33:34;;;;;;;12.80;11.70;;;;;;;;;;5051239;28;20598;-56
2022/11/11 13:36:00;;;;;;;12.73;11.43;;;;;;;;;;5052163;28;20646;-56
2022/11/11 13:38:31;;;;;;;12.47;11.33;;;;;;;;;;5052306;28;20830;-56
2022/11/11 13:40:59;;;;;;;12.40;11.20;;;;;;;;;;5050681;28;20596;-56
2022/11/11 13:43:32;;;;;;;12.93;11.80;;;;;;;;;;5030649;28;20678;-57
2022/11/11 13:45:59;;;;;;;12.50;11.20;;;;;;;;;;5030581;28;20999;-56
2022/11/11 13:48:30;;;;;;;12.70;11.40;;;;;;;;;;5032539;28;20599;-56
2022/11/11 13:51:10;;;;;;;13.20;11.90;;;;;;;;;;5032285;28;20611;-55
2022/11/11 13:53:36;;;;;;;13.47;12.00;;;;;;;;;;5047501;28;20663;-56
2022/11/11 13:56:02;;;;;;;12.80;11.67;;;;;;;;;;5052012;28;20633;-55
2022/11/11 13:58:35;;;;;;;13.63;11.50;;;;;;;;;;5052127;28;20621;-57
2022/11/11 14:01:02;;;;;;;12.93;11.73;;;;;;;;;;5031254;28;20204;-57
2022/11/11 14:03:29;;;;;;;12.67;10.90;;;;;;;;;;5030683;28;20623;-56
2022/11/11 14:06:12;;;;;;;13.80;12.60;;;;;;;;;;5031994;28;20607;-56
2022/11/11 14:08:46;;;;;;;14.57;12.80;;;;;;;;;;5050162;28;20611;-56
2022/11/11 14:11:28;;;;;;;13.73;11.63;;;;;;;;;;5045204;28;20609;-55
2022/11/11 14:13:57;;;;;;;13.60;12.20;;;;;;;;;;5041023;28;20618;-56
2022/11/11 14:16:34;;;;;;;13.20;12.00;;;;;;;;;;5051178;28;20648;-55
2022/11/11 14:19:17;;;;;;;13.73;12.40;;;;;;;;;;5048993;28;20687;-56
2022/11/11 14:21:48;;;;;;;13.80;12.50;;;;;;;;;;5043178;28;20663;-56
2022/11/11 14:24:21;;;;;;;15.80;14.17;;;;;;;;;;5031731;28;20608;-56
2022/11/11 14:26:55;;;;;;;13.70;12.50;;;;;;;;;;5051064;28;20701;-56
2022/11/11 14:29:24;;;;;;;13.53;12.23;;;;;;;;;;5054810;28;20609;-56
2022/11/11 14:31:49;;;;;;;15.40;13.83;;;;;;;;;;5054141;28;20609;-57
2022/11/11 14:34:14;;;;;;;14.05;12.60;;;;;;;;;;5028760;28;20614;-56
2022/11/11 14:36:50;;;;;;;14.13;12.90;;;;;;;;;;5036805;28;20210;-54
2022/11/11 14:39:18;;;;;;;13.10;11.93;;;;;;;;;;5045669;28;20260;-56
2022/11/11 14:41:48;;;;;;;14.43;12.93;;;;;;;;;;5047609;28;20629;-56
2022/11/11 14:44:28;;;;;;;13.43;12.23;;;;;;;;;;5041118;28;20613;-57
2022/11/11 14:47:06;;;;;;;14.80;13.23;;;;;;;;;;5047623;28;20706;-56
2022/11/11 14:49:49;;;;;;;15.33;13.83;;;;;;;;;;5050251;28;20606;-56
2022/11/11 14:52:17;;;;;;;15.77;13.83;;;;;;;;;;5059892;28;20628;-55
2022/11/11 14:54:48;;;;;;;15.00;13.60;;;;;;;;;;5058909;28;20588;-56
2022/11/11 14:57:28;;;;;;;15.10;13.70;;;;;;;;;;5034726;28;21034;-55
2022/11/11 14:59:54;;;;;;;15.73;14.17;;;;;;;;;;5039037;28;21029;-55
2022/11/11 15:02:31;;;;;;;15.67;14.23;;;;;;;;;;5031822;28;21384;-55
2022/11/11 15:04:57;;;;;;;15.33;13.90;;;;;;;;;;5036030;28;20182;-55
2022/11/11 15:07:30;;;;;;;15.73;14.33;;;;;;;;;;5044147;28;20659;-55
2022/11/11 15:10:14;;;;;;;16.27;14.93;;;;;;;;;;5050917;28;20718;-57
2022/11/11 15:12:56;;;;;;;14.03;12.73;;;;;;;;;;5036363;28;20649;-56
2022/11/11 15:15:24;;;;;;;16.20;14.67;;;;;;;;;;5037313;28;21135;-56
2022/11/11 15:18:08;;;;;;;17.30;14.40;;;;;;;;;;5029459;28;21317;-57
2022/11/11 15:20:49;;;;;;;15.40;13.90;;;;;;;;;;5030129;28;20600;-56
2022/11/11 15:23:33;;;;;;;15.90;14.30;;;;;;;;;;5025935;28;20573;-57
2022/11/11 15:26:08;;;;;;;15.17;13.77;;;;;;;;;;5030960;28;20556;-57
2022/11/11 15:28:57;;;;;;;14.57;13.37;;;;;;;;;;5030260;28;20632;-56
2022/11/11 15:31:40;;;;;;;16.93;14.27;;;;;;;;;;5042039;28;20620;-54
2022/11/11 15:34:24;;;;;;;16.37;14.77;;;;;;;;;;5050242;28;20580;-57
2022/11/11 15:36:54;;;;;;;16.70;14.97;;;;;;;;;;5050372;28;20637;-56
2022/11/11 15:39:21;;;;;;;18.07;15.87;;;;;;;;;;5050080;28;20592;-55
2022/11/11 15:41:48;;;;;;;16.77;15.13;;;;;;;;;;5037497;28;20679;-56
2022/11/11 15:44:21;;;;;;;15.83;14.43;;;;;;;;;;5030070;28;20571;-57
2022/11/11 15:46:48;;;;;;;16.57;14.87;;;;;;;;;;5030461;28;20588;-56
2022/11/11 15:49:39;;;;;;;16.30;15.03;;;;;;;;;;5029927;28;20592;-56
2022/11/11 15:52:09;;;;;;;16.10;14.70;;;;;;;;;;5028873;28;20629;-56